Time;durP1;ratioP1;P1;durP2;ratioP2;P2;SDS_P1;SDS_P2;PMS_P1;PMS_P2;Temp;Humidity;BMP_temperature;BMP_pressure;BME280_temperature;BME280_humidity;BME280_pressure;Samples;Min_cycle;Max_cycle;Signal;HPM_P1;HPM_P2
2022/09/05 00:03:43;;;;;;;2.20;1.00;;;21.10;56.10;;;;;;2341910;54;21992;-71
2022/09/05 00:06:12;;;;;;;1.62;0.65;;;21.10;56.30;;;;;;2343114;54;20975;-74
2022/09/05 00:08:47;;;;;;;1.90;0.82;;;21.00;56.20;;;;;;2342529;53;21000;-70
2022/09/05 00:11:25;;;;;;;2.15;0.70;;;21.00;56.30;;;;;;2342780;53;21008;-71
2022/09/05 00:14:14;;;;;;;1.42;0.70;;;20.90;56.30;;;;;;2342580;53;20937;-70
2022/09/05 00:17:16;;;;;;;1.77;0.82;;;20.90;56.30;;;;;;2335266;53;20936;-71
2022/09/05 00:20:57;;;;;;;2.17;1.20;;;20.90;56.50;;;;;;2343205;53;20933;-70
2022/09/05 00:23:53;;;;;;;1.85;0.80;;;20.90;56.70;;;;;;2582685;52;20964;-74
2022/09/05 00:26:50;;;;;;;2.30;0.82;;;20.80;56.70;;;;;;2345399;54;21008;-70
2022/09/05 00:30:24;;;;;;;2.28;0.90;;;20.80;56.50;;;;;;2342690;54;21000;-70
2022/09/05 00:33:00;;;;;;;;;;;20.80;56.60;;;;;;2346628;54;20944;-73
2022/09/05 00:35:50;;;;;;;3.20;0.85;;;20.80;56.40;;;;;;2341821;54;20454;-70
2022/09/05 00:38:22;;;;;;;1.70;0.70;;;20.80;56.80;;;;;;2343152;55;21004;-74
2022/09/05 00:40:51;;;;;;;1.73;0.80;;;20.70;56.60;;;;;;2342412;53;21020;-70
2022/09/05 00:43:29;;;;;;;1.77;0.80;;;20.70;56.60;;;;;;2589052;53;20925;-71
2022/09/05 00:46:33;;;;;;;2.60;1.02;;;20.70;56.70;;;;;;2589042;53;21016;-73
2022/09/05 00:50:02;;;;;;;1.60;0.80;;;20.70;56.70;;;;;;2336557;53;21045;-70
2022/09/05 00:52:37;;;;;;;1.67;0.60;;;20.70;56.80;;;;;;2335502;54;21585;-70
2022/09/05 00:55:17;;;;;;;1.83;0.90;;;20.60;56.60;;;;;;2325306;53;20988;-69
2022/09/05 01:01:33;;;;;;;2.17;0.70;;;20.60;56.60;;;;;;2334778;54;20992;-69
2022/09/05 01:08:44;;;;;;;1.27;0.70;;;20.60;56.70;;;;;;2588540;53;20936;-71
2022/09/05 01:11:38;;;;;;;1.45;0.62;;;20.60;56.70;;;;;;2361761;53;20952;-69
2022/09/05 01:14:30;;;;;;;1.90;0.60;;;20.50;56.60;;;;;;2343027;54;20987;-73
2022/09/05 01:17:33;;;;;;;1.75;0.90;;;20.40;56.60;;;;;;2513281;53;21000;-70
2022/09/05 01:26:52;;;;;;;3.33;0.70;;;20.40;56.60;;;;;;2344127;53;20971;-72
2022/09/05 01:33:42;;;;;;;1.20;0.60;;;20.40;56.80;;;;;;2341685;54;20945;-70
2022/09/05 01:36:44;;;;;;;0.93;0.50;;;20.30;56.50;;;;;;2344688;55;20933;-69
2022/09/05 01:39:54;;;;;;;1.80;0.80;;;20.30;56.90;;;;;;2343304;55;21788;-69
2022/09/05 01:47:01;;;;;;;2.33;0.93;;;20.20;56.90;;;;;;2320164;55;21928;-70
2022/09/05 01:50:11;;;;;;;1.62;0.65;;;20.20;56.80;;;;;;2589492;53;20986;-70
2022/09/05 02:07:09;;;;;;;3.40;0.77;;;20.20;56.90;;;;;;2327407;54;21016;-71
2022/09/05 02:10:04;;;;;;;3.05;1.15;;;20.10;57.00;;;;;;2346689;52;23487;-69
2022/09/05 02:12:40;;;;;;;3.70;1.70;;;20.00;56.80;;;;;;2317560;53;21809;-69
2022/09/05 02:15:18;;;;;;;4.82;1.70;;;19.90;56.90;;;;;;2330050;54;21362;-70
2022/09/05 02:17:53;;;;;;;4.55;1.80;;;19.90;57.10;;;;;;2356627;54;20927;-70
2022/09/05 02:20:46;;;;;;;4.40;1.95;;;19.90;57.20;;;;;;2352255;53;20923;-74
2022/09/05 02:25:28;;;;;;;4.32;1.45;;;19.90;57.40;;;;;;2355885;53;20965;-69
2022/09/05 02:28:00;;;;;;;3.40;1.60;;;19.80;57.30;;;;;;2355985;54;21736;-70
2022/09/05 02:30:28;;;;;;;;;;;19.90;57.40;;;;;;2360530;54;20948;-70
2022/09/05 02:33:24;;;;;;;2.70;1.25;;;19.80;57.20;;;;;;2356988;54;20126;-70
2022/09/05 02:37:54;;;;;;;3.30;1.30;;;19.80;57.20;;;;;;2332639;53;21155;-69
2022/09/05 02:40:43;;;;;;;2.50;1.00;;;19.80;57.40;;;;;;2605990;53;20946;-70
2022/09/05 02:43:38;;;;;;;2.78;1.05;;;19.80;57.40;;;;;;2356763;54;21727;-68
2022/09/05 02:46:14;;;;;;;3.12;1.08;;;19.80;57.40;;;;;;2357130;54;20954;-69
2022/09/05 02:49:14;;;;;;;2.55;1.27;;;19.80;57.40;;;;;;2529730;53;21325;-72
2022/09/05 02:51:58;;;;;;;5.82;1.40;;;19.70;57.70;;;;;;2604173;52;21767;-71
2022/09/05 02:54:29;;;;;;;2.37;1.15;;;19.70;58.10;;;;;;2603816;53;20974;-71
2022/09/05 02:59:51;;;;;;;2.65;1.33;;;19.70;58.10;;;;;;2600609;52;21555;-70
2022/09/05 03:09:09;;;;;;;2.15;0.82;;;19.70;58.30;;;;;;2354395;54;21779;-72
2022/09/05 03:12:10;;;;;;;1.50;0.70;;;19.70;58.00;;;;;;2326003;54;20958;-71
2022/09/05 03:18:29;;;;;;;2.40;0.95;;;19.70;57.90;;;;;;2329310;53;20966;-71
2022/09/05 03:21:23;;;;;;;1.73;0.82;;;19.70;57.80;;;;;;2328817;53;20961;-69
2022/09/05 03:24:35;;;;;;;2.00;0.93;;;19.70;57.80;;;;;;2327769;53;20937;-70
2022/09/05 03:30:11;;;;;;;1.85;0.90;;;19.60;57.70;;;;;;2328745;53;20957;-72
2022/09/05 03:33:16;;;;;;;1.70;0.70;;;19.60;57.80;;;;;;2329778;53;20937;-70
2022/09/05 03:39:02;;;;;;;2.05;0.85;;;19.60;57.90;;;;;;2348777;53;20977;-71
2022/09/05 03:43:04;;;;;;;2.22;0.93;;;19.60;57.90;;;;;;2325880;53;20948;-71
2022/09/05 03:47:07;;;;;;;2.00;0.90;;;19.60;57.90;;;;;;2330773;53;21741;-74
2022/09/05 03:52:32;;;;;;;3.37;0.90;;;19.60;58.00;;;;;;2332061;53;21878;-71
2022/09/05 03:55:35;;;;;;;2.10;0.73;;;19.60;58.00;;;;;;2340062;53;20948;-72
2022/09/05 03:58:20;;;;;;;;;;;19.60;58.10;;;;;;2336670;53;21424;-70
2022/09/05 04:01:13;;;;;;;1.75;0.75;;;19.60;57.90;;;;;;2599778;52;20381;-70
2022/09/05 04:03:40;;;;;;;;;;;19.50;57.90;;;;;;2537807;52;20947;-70
2022/09/05 04:06:20;;;;;;;2.80;0.90;;;19.50;57.80;;;;;;2360856;54;20074;-70
2022/09/05 04:09:09;;;;;;;4.35;1.05;;;19.40;57.90;;;;;;2360591;54;20967;-70
2022/09/05 04:11:38;;;;;;;2.03;0.77;;;19.50;58.20;;;;;;2360493;54;20939;-71
2022/09/05 04:14:09;;;;;;;2.72;0.93;;;19.40;58.10;;;;;;2361375;54;21006;-69
2022/09/05 04:16:49;;;;;;;3.17;1.17;;;19.40;58.20;;;;;;2361329;54;20970;-70
2022/09/05 04:19:40;;;;;;;2.30;1.12;;;19.40;58.40;;;;;;2360534;54;20911;-69
2022/09/05 04:22:40;;;;;;;1.95;1.00;;;19.40;58.30;;;;;;2360981;54;21062;-71
2022/09/05 04:25:20;;;;;;;2.00;1.00;;;19.40;58.30;;;;;;2361123;54;21061;-69
2022/09/05 04:28:13;;;;;;;2.78;1.20;;;19.30;58.20;;;;;;2611762;52;21510;-70
2022/09/05 04:30:46;;;;;;;2.15;0.80;;;19.40;58.30;;;;;;2359800;54;20895;-70
2022/09/05 04:33:23;;;;;;;2.43;1.00;;;19.40;58.20;;;;;;2610945;52;21022;-70
2022/09/05 04:36:09;;;;;;;2.12;0.93;;;19.30;58.10;;;;;;2362236;54;20939;-71
2022/09/05 04:38:38;;;;;;;2.30;1.10;;;19.30;58.10;;;;;;2360490;54;20929;-70
2022/09/05 04:41:12;;;;;;;3.42;0.90;;;19.30;58.10;;;;;;2361103;54;20926;-74
2022/09/05 04:44:28;;;;;;;2.50;1.00;;;19.20;58.10;;;;;;2360985;54;20947;-73
2022/09/05 04:46:57;;;;;;;1.70;0.80;;;19.20;58.20;;;;;;2362254;54;21861;-70
2022/09/05 04:49:26;;;;;;;2.67;1.10;;;19.20;58.20;;;;;;2361191;54;21475;-70
2022/09/05 04:57:16;;;;;;;1.58;0.85;;;19.20;58.30;;;;;;2430061;53;21500;-70
2022/09/05 05:00:04;;;;;;;1.48;0.70;;;19.20;58.50;;;;;;2320279;53;20975;-70
2022/09/05 05:02:47;;;;;;;3.45;0.98;;;19.20;58.10;;;;;;2328301;53;21018;-70
2022/09/05 05:05:24;;;;;;;2.15;0.90;;;19.10;58.10;;;;;;2329511;54;21014;-71
2022/09/05 05:09:24;;;;;;;2.85;0.70;;;19.10;58.30;;;;;;2329205;54;21004;-70
2022/09/05 05:12:00;;;;;;;1.85;0.88;;;19.10;58.30;;;;;;2329442;54;20908;-72
2022/09/05 05:15:26;;;;;;;2.30;0.98;;;19.10;58.30;;;;;;2332010;54;20912;-70
2022/09/05 05:18:22;;;;;;;3.30;1.27;;;19.10;58.30;;;;;;2579065;53;20904;-70
2022/09/05 05:20:55;;;;;;;2.33;1.20;;;19.10;58.50;;;;;;2309843;54;21433;-70
2022/09/05 05:23:57;;;;;;;2.53;1.20;;;19.00;58.40;;;;;;2307329;54;20979;-70
2022/09/05 05:26:49;;;;;;;1.70;0.90;;;19.00;58.60;;;;;;2297375;55;20911;-72
2022/09/05 05:29:29;;;;;;;2.00;0.90;;;19.00;58.60;;;;;;2322629;53;20957;-71
2022/09/05 05:31:58;;;;;;;2.35;0.93;;;19.00;58.60;;;;;;2289402;54;20911;-71
2022/09/05 05:34:35;;;;;;;2.40;1.10;;;19.00;58.60;;;;;;2328013;54;20958;-71
2022/09/05 05:37:22;;;;;;;3.90;1.23;;;19.00;58.70;;;;;;2320982;53;20980;-70
2022/09/05 05:40:01;;;;;;;2.90;1.30;;;19.00;58.80;;;;;;2338692;53;21449;-70
2022/09/05 05:42:28;;;;;;;3.70;1.30;;;19.00;58.80;;;;;;2347562;53;21450;-73
2022/09/05 05:44:55;;;;;;;2.90;1.25;;;19.00;58.80;;;;;;2342303;53;21522;-73
2022/09/05 05:47:28;;;;;;;2.37;1.20;;;19.00;58.80;;;;;;2343309;53;21076;-70
2022/09/05 05:50:20;;;;;;;2.65;1.10;;;18.90;58.80;;;;;;2343495;53;20984;-70
2022/09/05 05:53:24;;;;;;;2.00;1.03;;;19.00;59.10;;;;;;2343434;53;20952;-72
2022/09/05 05:57:46;;;;;;;2.42;1.10;;;19.00;59.10;;;;;;2407162;52;21556;-73
2022/09/05 06:00:20;;;;;;;1.70;0.80;;;19.00;59.00;;;;;;2368028;53;20951;-71
2022/09/05 06:07:16;;;;;;;2.30;1.02;;;19.00;58.80;;;;;;2370116;53;21042;-70
2022/09/05 06:10:07;;;;;;;1.73;0.88;;;19.10;58.90;;;;;;2355366;53;20931;-70
2022/09/05 06:17:04;;;;;;;2.25;0.98;;;19.10;58.90;;;;;;2370476;53;21599;-74
2022/09/05 06:20:15;;;;;;;3.47;1.40;;;19.10;59.00;;;;;;2353311;53;21033;-73
2022/09/05 06:28:17;;;;;;;1.67;0.85;;;19.10;59.10;;;;;;2370171;53;20974;-71
2022/09/05 06:31:14;;;;;;;2.75;0.80;;;19.10;59.20;;;;;;2623437;52;21763;-70
2022/09/05 06:34:03;;;;;;;2.08;1.00;;;19.10;59.50;;;;;;2545516;52;20946;-70
2022/09/05 06:36:48;;;;;;;2.45;1.10;;;19.10;59.60;;;;;;2370793;53;20997;-70
2022/09/05 06:42:13;;;;;;;2.40;1.20;;;19.20;59.80;;;;;;2371284;53;20963;-74
2022/09/05 06:44:53;;;;;;;2.83;1.25;;;19.20;60.10;;;;;;2487281;52;20909;-71
2022/09/05 06:47:24;;;;;;;3.22;0.98;;;19.30;60.10;;;;;;2398036;52;21708;-71
2022/09/05 06:50:05;;;;;;;2.40;1.00;;;19.30;60.10;;;;;;2342765;53;20937;-71
2022/09/05 06:54:13;;;;;;;3.37;1.25;;;19.40;60.70;;;;;;2342951;53;21511;-73
2022/09/05 07:00:29;;;;;;;2.60;1.35;;;19.50;61.50;;;;;;2343378;53;20956;-71
2022/09/05 07:03:29;;;;;;;1.83;0.90;;;19.60;61.20;;;;;;2343764;53;21525;-71
2022/09/05 07:12:48;;;;;;;2.30;1.10;;;19.80;61.20;;;;;;2348190;53;20953;-71
2022/09/05 07:15:39;;;;;;;3.33;1.10;;;19.90;61.30;;;;;;2343699;53;20965;-69
2022/09/05 07:18:15;;;;;;;2.40;1.10;;;20.20;61.70;;;;;;2343525;53;20984;-71
2022/09/05 07:20:52;;;;;;;2.70;1.20;;;20.30;61.50;;;;;;2417668;52;21771;-71
2022/09/05 07:23:39;;;;;;;2.78;1.37;;;20.40;61.70;;;;;;2590155;52;20933;-72
2022/09/05 07:26:07;;;;;;;4.47;1.80;;;20.50;62.10;;;;;;2343744;53;20932;-71
2022/09/05 07:28:39;;;;;;;2.80;1.70;;;20.50;62.00;;;;;;2342350;53;20945;-71
2022/09/05 07:31:09;;;;;;;3.33;1.73;;;20.60;62.20;;;;;;2590928;52;21010;-75
2022/09/05 07:33:36;;;;;;;6.07;1.85;;;20.70;62.20;;;;;;2343101;53;20979;-71
2022/09/05 07:36:19;;;;;;;3.28;1.60;;;20.80;62.40;;;;;;2334046;53;21004;-71
2022/09/05 07:38:49;;;;;;;3.33;1.50;;;21.00;62.70;;;;;;2588406;52;20912;-72
2022/09/05 07:41:25;;;;;;;3.37;1.70;;;21.10;62.70;;;;;;2354113;53;20995;-73
2022/09/05 07:43:54;;;;;;;3.55;1.90;;;21.20;63.00;;;;;;2593621;52;20933;-72
2022/09/05 07:46:22;;;;;;;2.53;1.30;;;21.30;62.90;;;;;;2623963;52;20951;-73
2022/09/05 07:48:59;;;;;;;2.62;1.50;;;21.40;62.90;;;;;;2371888;53;20886;-73
2022/09/05 07:51:27;;;;;;;4.97;1.37;;;21.50;63.10;;;;;;2369207;53;20978;-75
2022/09/05 07:54:01;;;;;;;4.15;1.50;;;21.60;62.90;;;;;;2353900;53;20966;-71
2022/09/05 07:58:20;;;;;;;3.03;1.65;;;21.70;62.90;;;;;;2371297;53;20938;-76
2022/09/05 08:00:50;;;;;;;2.70;1.58;;;21.90;63.00;;;;;;2623716;52;21005;-70
2022/09/05 08:03:18;;;;;;;4.30;1.65;;;22.10;62.90;;;;;;2371513;53;20927;-72
2022/09/05 08:05:47;;;;;;;3.62;1.65;;;22.20;62.80;;;;;;2370844;53;20962;-73
2022/09/05 08:08:18;;;;;;;3.10;1.50;;;22.20;62.60;;;;;;2371461;53;20926;-73
2022/09/05 08:10:52;;;;;;;4.30;1.85;;;22.40;62.60;;;;;;2370726;53;21210;-71
2022/09/05 08:13:20;;;;;;;3.62;1.77;;;22.50;62.60;;;;;;2370880;53;20879;-75
2022/09/05 08:15:48;;;;;;;3.78;1.70;;;22.60;62.60;;;;;;2370774;53;21443;-72
2022/09/05 08:18:48;;;;;;;3.80;2.00;;;22.70;62.60;;;;;;2437114;52;21015;-72
2022/09/05 08:21:23;;;;;;;3.80;1.80;;;22.80;62.70;;;;;;2371129;53;20990;-75
2022/09/05 08:23:55;;;;;;;3.00;1.40;;;22.90;62.50;;;;;;2622944;52;20931;-74
2022/09/05 08:26:44;;;;;;;2.30;1.30;;;23.00;62.50;;;;;;2371250;53;20935;-72
2022/09/05 08:29:38;;;;;;;2.62;1.45;;;23.20;62.20;;;;;;2370916;53;20958;-72
2022/09/05 08:32:12;;;;;;;3.08;1.55;;;23.20;61.70;;;;;;2371291;53;21003;-72
2022/09/05 08:34:47;;;;;;;2.17;1.20;;;23.40;62.20;;;;;;2370742;53;20918;-76
2022/09/05 08:37:24;;;;;;;2.87;1.50;;;23.50;62.10;;;;;;2370973;53;21415;-72
2022/09/05 08:39:52;;;;;;;4.32;1.58;;;23.60;62.00;;;;;;2370793;53;20997;-71
2022/09/05 08:44:01;;;;;;;4.20;1.80;;;23.70;62.00;;;;;;2371241;53;21452;-72
2022/09/05 08:46:40;;;;;;;2.85;1.40;;;23.90;61.80;;;;;;2350880;54;20947;-72
2022/09/05 08:50:07;;;;;;;2.85;1.50;;;24.00;61.80;;;;;;2370679;53;20911;-72
2022/09/05 08:54:40;;;;;;;2.65;1.45;;;24.10;61.90;;;;;;2509661;52;20910;-72
2022/09/05 08:57:20;;;;;;;2.72;1.27;;;24.30;61.10;;;;;;2371152;53;20918;-72
2022/09/05 09:00:00;;;;;;;2.70;1.30;;;24.40;61.50;;;;;;2623405;52;20939;-73
2022/09/05 09:05:09;;;;;;;3.00;1.45;;;24.50;61.20;;;;;;2371546;53;21022;-72
2022/09/05 09:17:48;;;;;;;2.00;1.12;;;24.80;60.80;;;;;;2370909;53;20939;-72
2022/09/05 09:20:58;;;;;;;1.58;0.70;;;25.10;60.80;;;;;;2370405;53;21057;-71
2022/09/05 09:23:50;;;;;;;2.75;1.00;;;25.50;60.00;;;;;;2343252;53;20928;-72
2022/09/05 09:26:27;;;;;;;2.33;0.90;;;25.50;60.10;;;;;;2342911;53;21450;-71
2022/09/05 09:29:02;;;;;;;2.05;0.95;;;25.60;60.00;;;;;;2347975;53;20932;-70
2022/09/05 09:31:57;;;;;;;2.67;1.20;;;25.70;59.70;;;;;;2361576;54;21037;-71
2022/09/05 09:35:04;;;;;;;2.58;1.33;;;25.80;59.60;;;;;;2588394;52;20958;-71
2022/09/05 09:41:16;;;;;;;2.15;1.05;;;26.00;59.50;;;;;;2360214;53;20932;-73
2022/09/05 09:46:50;;;;;;;2.25;1.20;;;26.00;59.10;;;;;;2343029;53;20925;-71
2022/09/05 09:53:03;;;;;;;2.10;1.10;;;26.40;59.70;;;;;;2361068;53;20931;-73
2022/09/05 09:58:47;;;;;;;2.67;1.17;;;26.60;58.80;;;;;;2343192;53;20952;-72
2022/09/05 10:01:53;;;;;;;2.28;1.10;;;26.80;58.20;;;;;;2607801;53;21070;-71
2022/09/05 10:05:53;;;;;;;2.08;0.98;;;26.90;57.90;;;;;;2589555;52;21489;-71
2022/09/05 10:13:28;;;;;;;2.33;1.00;;;27.10;57.80;;;;;;2343335;53;20957;-72
2022/09/05 10:16:19;;;;;;;3.22;1.33;;;27.10;58.00;;;;;;2343584;53;20988;-70
2022/09/05 10:19:09;;;;;;;3.00;1.50;;;27.40;56.90;;;;;;2343256;53;20936;-71
2022/09/05 10:22:13;;;;;;;2.70;1.40;;;27.40;57.40;;;;;;2342823;53;20941;-73
2022/09/05 10:25:47;;;;;;;3.15;1.25;;;27.50;56.90;;;;;;2584069;52;21010;-70
2022/09/05 10:28:30;;;;;;;3.20;1.30;;;27.60;56.60;;;;;;2602493;52;20939;-72
2022/09/05 10:31:51;;;;;;;3.00;1.70;;;27.60;56.80;;;;;;2369176;53;20998;-71
2022/09/05 10:34:44;;;;;;;2.70;1.30;;;27.70;56.40;;;;;;2370967;53;20922;-73
2022/09/05 10:37:11;;;;;;;2.35;1.10;;;27.80;56.80;;;;;;2371364;53;20954;-70
2022/09/05 10:39:42;;;;;;;4.15;1.50;;;27.90;56.90;;;;;;2347913;53;20980;-72
2022/09/05 10:42:14;;;;;;;3.12;1.70;;;27.90;56.70;;;;;;2367206;53;20907;-71
2022/09/05 10:44:53;;;;;;;3.12;1.35;;;28.00;56.50;;;;;;2373516;53;21037;-70
2022/09/05 10:47:46;;;;;;;2.97;1.50;;;28.10;56.20;;;;;;2370458;53;20941;-76
2022/09/05 10:50:31;;;;;;;2.50;1.20;;;28.10;55.80;;;;;;2465540;52;20911;-71
2022/09/05 10:56:41;;;;;;;3.55;1.30;;;28.20;55.50;;;;;;2365115;53;20986;-69
2022/09/05 10:59:19;;;;;;;3.42;1.10;;;28.30;55.70;;;;;;2590277;52;21090;-73
2022/09/05 11:02:03;;;;;;;3.00;1.20;;;28.40;55.60;;;;;;2364842;53;21888;-73
2022/09/05 11:04:52;;;;;;;2.53;1.35;;;28.50;55.40;;;;;;2367764;53;21284;-71
2022/09/05 11:07:38;;;;;;;3.78;1.05;;;28.50;54.90;;;;;;2369907;53;20906;-70
2022/09/05 11:11:44;;;;;;;3.62;1.33;;;28.60;54.90;;;;;;2367154;53;20950;-71
2022/09/05 11:14:27;;;;;;;2.28;1.05;;;28.70;54.90;;;;;;2336817;54;20924;-71
2022/09/05 11:16:55;;;;;;;2.72;1.20;;;28.70;55.10;;;;;;2343542;53;20956;-72
2022/09/05 11:19:43;;;;;;;2.87;1.20;;;28.80;55.40;;;;;;2339544;53;21481;-72
2022/09/05 11:22:11;;;;;;;2.65;1.20;;;28.90;54.80;;;;;;2589346;52;21439;-72
2022/09/05 11:25:14;;;;;;;3.28;1.30;;;28.90;55.10;;;;;;2372172;53;21425;-71
2022/09/05 11:27:44;;;;;;;2.80;1.30;;;29.00;54.40;;;;;;2342621;53;21056;-71
2022/09/05 11:30:19;;;;;;;2.35;1.25;;;29.10;54.70;;;;;;2351425;53;21028;-71
2022/09/05 11:34:46;;;;;;;3.50;1.30;;;29.10;54.20;;;;;;2595155;52;20921;-71
2022/09/05 11:37:36;;;;;;;2.15;0.95;;;29.20;53.60;;;;;;2346612;53;20920;-71
2022/09/05 11:50:31;;;;;;;2.55;0.82;;;29.50;53.80;;;;;;2410346;53;20986;-68
2022/09/05 11:55:52;;;;;;;2.35;0.95;;;29.60;53.40;;;;;;2366448;53;21454;-73
2022/09/05 12:08:53;;;;;;;2.33;0.70;;;29.80;53.50;;;;;;2622081;52;20938;-71
2022/09/05 12:13:15;;;;;;;2.10;0.88;;;30.10;52.70;;;;;;2370652;53;20978;-70
2022/09/05 12:15:45;;;;;;;1.92;1.00;;;30.20;52.80;;;;;;2370604;53;20990;-71
2022/09/05 12:18:49;;;;;;;2.40;1.00;;;30.20;53.10;;;;;;2622964;52;20958;-72
2022/09/05 12:22:54;;;;;;;1.75;0.77;;;30.30;52.20;;;;;;2371103;53;20978;-70
2022/09/05 12:26:15;;;;;;;2.95;0.98;;;30.30;52.20;;;;;;2370485;53;21387;-72
2022/09/05 12:28:56;;;;;;;2.22;1.12;;;30.40;51.70;;;;;;2370653;53;20938;-71
2022/09/05 12:31:34;;;;;;;1.98;0.75;;;30.40;51.80;;;;;;2370543;53;20914;-71
2022/09/05 12:34:01;;;;;;;2.35;1.00;;;30.40;51.90;;;;;;2374542;53;20914;-73
2022/09/05 12:36:46;;;;;;;2.53;1.15;;;30.40;52.00;;;;;;2484746;52;20978;-71
2022/09/05 12:39:45;;;;;;;2.80;1.17;;;30.50;51.40;;;;;;2371415;53;20950;-73
2022/09/05 12:42:20;;;;;;;2.70;1.00;;;30.50;51.20;;;;;;2370522;53;21005;-71
2022/09/05 12:45:15;;;;;;;1.77;0.80;;;30.60;51.30;;;;;;2587823;52;21762;-71
2022/09/05 12:48:08;;;;;;;1.62;0.90;;;30.60;50.90;;;;;;2365273;53;21078;-71
2022/09/05 12:51:04;;;;;;;2.75;1.08;;;30.60;50.80;;;;;;2610214;52;21462;-70
2022/09/05 13:00:20;;;;;;;4.47;0.95;;;30.70;50.80;;;;;;2350724;54;21399;-71
2022/09/05 13:02:59;;;;;;;1.17;0.50;;;30.80;50.70;;;;;;2358434;53;20929;-71
2022/09/05 13:07:22;;;;;;;2.33;0.80;;;30.80;50.10;;;;;;2612679;52;21411;-71
2022/09/05 13:16:56;;;;;;;1.77;0.88;;;30.90;50.50;;;;;;2369684;53;20953;-75
2022/09/05 13:19:36;;;;;;;1.10;0.57;;;30.90;49.80;;;;;;2356165;53;21413;-72
2022/09/05 13:22:02;;;;;;;1.50;0.70;;;31.10;49.40;;;;;;2594501;52;21402;-70
2022/09/05 13:24:33;;;;;;;1.83;0.80;;;31.10;49.50;;;;;;2347074;53;20905;-72
2022/09/05 13:27:36;;;;;;;1.50;0.80;;;31.10;49.20;;;;;;2344362;53;21427;-74
2022/09/05 13:30:12;;;;;;;2.25;0.90;;;31.20;48.70;;;;;;2547712;52;20983;-71
2022/09/05 13:36:10;;;;;;;2.83;0.70;;;31.30;47.80;;;;;;2341403;53;20951;-71
2022/09/05 13:39:26;;;;;;;1.75;0.82;;;31.40;48.20;;;;;;2369674;56;22025;-73
2022/09/05 13:42:02;;;;;;;2.62;0.80;;;31.50;47.80;;;;;;2621537;52;21125;-73
2022/09/05 13:44:29;;;;;;;1.98;0.85;;;31.60;47.70;;;;;;2608617;52;21435;-69
2022/09/05 13:47:10;;;;;;;3.22;1.00;;;31.60;47.90;;;;;;2516341;52;20946;-71
2022/09/05 13:50:23;;;;;;;2.90;1.08;;;31.60;46.80;;;;;;2555749;52;21322;-71
2022/09/05 13:55:52;;;;;;;1.50;0.80;;;31.70;47.10;;;;;;2370038;53;20982;-71
2022/09/05 13:59:05;;;;;;;1.95;0.68;;;31.90;47.40;;;;;;2367651;53;21609;-70
2022/09/05 14:03:22;;;;;;;1.77;0.77;;;31.90;46.80;;;;;;2370174;53;20943;-71
2022/09/05 14:22:32;;;;;;;1.48;0.70;;;32.00;46.00;;;;;;2342582;53;20959;-71
2022/09/05 14:24:58;;;;;;;1.33;0.57;;;32.40;46.70;;;;;;2342353;53;21497;-70
2022/09/05 14:27:24;;;;;;;2.00;0.73;;;32.40;46.10;;;;;;2342613;53;21000;-74
2022/09/05 14:29:52;;;;;;;1.95;0.85;;;32.40;45.80;;;;;;2345741;53;21446;-71
2022/09/05 14:32:43;;;;;;;1.92;0.90;;;32.40;45.50;;;;;;2343134;53;20924;-71
2022/09/05 14:40:14;;;;;;;1.35;0.60;;;32.40;44.70;;;;;;2343112;53;20949;-72
2022/09/05 14:43:37;;;;;;;2.35;0.60;;;32.50;45.10;;;;;;2344280;53;20960;-71
2022/09/05 14:46:07;;;;;;;;;;;32.50;44.10;;;;;;2347352;53;20922;-70
2022/09/05 14:49:17;;;;;;;1.25;0.52;;;32.50;44.90;;;;;;2344360;53;20069;-71
2022/09/05 14:51:45;;;;;;;1.75;0.68;;;32.50;44.00;;;;;;2342394;53;20994;-70
2022/09/05 14:54:25;;;;;;;1.83;0.70;;;32.50;44.60;;;;;;2340454;53;20982;-71
2022/09/05 14:57:27;;;;;;;1.80;0.70;;;32.40;44.00;;;;;;2553266;52;20974;-71
2022/09/05 14:59:57;;;;;;;1.17;0.50;;;32.40;44.10;;;;;;2349175;53;20957;-71
2022/09/05 15:02:32;;;;;;;1.77;0.68;;;32.40;44.20;;;;;;2344692;53;21025;-75
2022/09/05 15:05:05;;;;;;;1.70;0.95;;;32.40;44.00;;;;;;2364626;53;20942;-71
2022/09/05 15:07:45;;;;;;;2.12;0.70;;;32.30;43.70;;;;;;2369715;53;21369;-71
2022/09/05 15:10:51;;;;;;;2.08;0.80;;;32.30;43.00;;;;;;2621293;52;21774;-70
2022/09/05 15:13:19;;;;;;;1.80;0.70;;;32.30;43.00;;;;;;2362921;53;20963;-70
2022/09/05 15:16:08;;;;;;;4.80;0.80;;;32.30;43.50;;;;;;2360203;53;21799;-71
2022/09/05 15:18:47;;;;;;;1.90;1.00;;;32.30;42.60;;;;;;2370900;53;20981;-70
2022/09/05 15:21:29;;;;;;;2.03;0.80;;;32.30;42.40;;;;;;2624264;52;21415;-70
2022/09/05 15:24:16;;;;;;;2.50;0.90;;;32.30;42.50;;;;;;2370694;53;21081;-72
2022/09/05 15:27:15;;;;;;;2.55;0.80;;;32.30;42.70;;;;;;2371413;53;21490;-71
2022/09/05 15:29:52;;;;;;;2.20;0.80;;;32.30;42.40;;;;;;2372211;53;21453;-70
2022/09/05 15:32:21;;;;;;;2.05;0.80;;;32.30;42.40;;;;;;2371113;53;21380;-72
2022/09/05 15:34:49;;;;;;;1.83;0.77;;;32.30;42.80;;;;;;2366635;53;20993;-70
2022/09/05 15:37:35;;;;;;;1.85;0.90;;;32.20;42.80;;;;;;2600244;52;20942;-70
2022/09/05 15:40:18;;;;;;;2.78;1.23;;;32.20;42.10;;;;;;2371482;53;21313;-70
2022/09/05 15:42:55;;;;;;;1.95;0.70;;;32.20;42.20;;;;;;2367760;53;20962;-72
2022/09/05 15:45:35;;;;;;;1.87;0.75;;;32.20;42.20;;;;;;2622222;52;21400;-72
2022/09/05 15:48:22;;;;;;;2.10;0.90;;;32.20;42.50;;;;;;2370775;53;21333;-69
2022/09/05 15:50:50;;;;;;;1.60;0.80;;;32.20;42.30;;;;;;2371166;53;20974;-71
2022/09/05 15:53:33;;;;;;;1.80;0.80;;;32.20;42.70;;;;;;2371543;53;20987;-70
2022/09/05 15:56:18;;;;;;;2.25;0.95;;;32.10;42.40;;;;;;2372368;53;20973;-71
2022/09/05 15:58:50;;;;;;;1.70;0.90;;;32.10;42.30;;;;;;2566426;52;21092;-70
2022/09/05 16:01:17;;;;;;;1.83;0.80;;;32.10;42.60;;;;;;2370735;56;21049;-70
2022/09/05 16:03:45;;;;;;;2.60;0.80;;;32.10;42.70;;;;;;2368621;56;21082;-70
2022/09/05 16:06:48;;;;;;;2.50;0.70;;;32.00;42.60;;;;;;2349848;53;20962;-70
2022/09/05 16:09:27;;;;;;;7.22;0.80;;;32.00;42.60;;;;;;2365268;53;21029;-71
2022/09/05 16:11:53;;;;;;;2.08;0.70;;;31.90;42.70;;;;;;2370128;53;21511;-71
2022/09/05 16:14:44;;;;;;;2.60;0.80;;;31.90;43.00;;;;;;2469433;52;21070;-69
2022/09/05 16:17:23;;;;;;;2.55;0.98;;;31.90;42.90;;;;;;2362215;53;20982;-72
2022/09/05 16:19:56;;;;;;;1.90;0.77;;;31.90;43.30;;;;;;2362140;53;20984;-70
2022/09/05 16:22:26;;;;;;;2.30;0.95;;;31.80;43.40;;;;;;2353710;53;21114;-69
2022/09/05 16:25:15;;;;;;;1.75;0.62;;;31.80;43.40;;;;;;2366818;53;21494;-72
2022/09/05 16:28:15;;;;;;;1.70;0.80;;;31.80;43.20;;;;;;2369465;53;21403;-69
2022/09/05 16:30:41;;;;;;;1.35;0.65;;;31.80;42.90;;;;;;2334448;54;21009;-71
2022/09/05 16:33:18;;;;;;;2.80;0.80;;;31.80;43.20;;;;;;2343543;53;20896;-69
2022/09/05 16:35:53;;;;;;;2.58;0.80;;;31.70;43.20;;;;;;2343137;53;21241;-70
2022/09/05 16:38:25;;;;;;;1.98;0.80;;;31.70;42.80;;;;;;2344883;53;21047;-69
2022/09/05 16:41:06;;;;;;;1.62;0.70;;;31.70;42.80;;;;;;2594448;52;20926;-71
2022/09/05 16:43:36;;;;;;;2.07;0.70;;;31.70;43.00;;;;;;2365323;53;20937;-69
2022/09/05 16:46:27;;;;;;;1.92;0.80;;;31.70;43.10;;;;;;2365634;53;20914;-69
2022/09/05 16:49:01;;;;;;;1.52;0.68;;;31.70;43.00;;;;;;2559714;52;21815;-69
2022/09/05 16:51:45;;;;;;;2.45;1.08;;;31.60;43.10;;;;;;2619428;52;20930;-71
2022/09/05 16:55:46;;;;;;;2.90;0.85;;;31.60;42.90;;;;;;2622981;52;20978;-72
2022/09/05 16:58:19;;;;;;;2.20;0.70;;;31.60;43.20;;;;;;2370168;53;20910;-69
2022/09/05 17:03:39;;;;;;;2.65;0.98;;;31.60;43.10;;;;;;2370864;53;20993;-69
2022/09/05 17:07:07;;;;;;;2.10;0.70;;;31.60;43.00;;;;;;2370257;53;20934;-72
2022/09/05 17:09:39;;;;;;;1.15;0.60;;;31.50;43.30;;;;;;2525474;52;21482;-70
2022/09/05 17:12:13;;;;;;;1.90;0.80;;;31.50;43.50;;;;;;2620366;52;20902;-69
2022/09/05 17:14:45;;;;;;;1.90;0.80;;;31.40;43.50;;;;;;2370094;53;21369;-70
2022/09/05 17:18:45;;;;;;;2.65;0.80;;;31.40;43.70;;;;;;2369546;53;22252;-72
2022/09/05 17:21:24;;;;;;;2.60;0.98;;;31.40;43.90;;;;;;2370921;53;20914;-70
2022/09/05 17:23:51;;;;;;;2.03;0.80;;;31.40;43.70;;;;;;2522158;52;20938;-71
2022/09/05 17:26:37;;;;;;;2.17;0.82;;;31.30;43.70;;;;;;2590313;52;20968;-69
2022/09/05 17:29:33;;;;;;;2.00;0.90;;;31.30;43.60;;;;;;2358511;53;20940;-69
2022/09/05 17:33:37;;;;;;;3.20;0.70;;;31.30;43.80;;;;;;2353831;53;20940;-71
2022/09/05 17:43:10;;;;;;;2.75;1.00;;;31.20;43.90;;;;;;2343188;53;21000;-73
2022/09/05 17:45:55;;;;;;;1.83;0.57;;;31.10;44.20;;;;;;2342485;53;21345;-72
2022/09/05 17:49:13;;;;;;;1.52;0.60;;;31.00;44.00;;;;;;2358834;53;21048;-71
2022/09/05 17:52:24;;;;;;;1.52;0.73;;;30.90;44.10;;;;;;2383726;53;20948;-73
2022/09/05 17:54:51;;;;;;;1.80;0.80;;;30.80;44.50;;;;;;2343686;53;21402;-70
2022/09/05 17:57:33;;;;;;;3.87;0.90;;;30.70;44.40;;;;;;2343928;53;20913;-69
2022/09/05 18:00:02;;;;;;;;;;;30.60;44.40;;;;;;2346610;53;20980;-73
2022/09/05 18:02:31;;;;;;;2.87;0.70;;;30.50;44.40;;;;;;2343134;53;20115;-72
2022/09/05 18:04:57;;;;;;;1.65;0.60;;;30.50;44.40;;;;;;2340991;53;21825;-70